Brazoria County Airport Angleton, Lake Jackson US
ICAO: KLBX
IATA: LBX
Category: Medium
Scheduled Services: No

Elevation: 25 ft
TransAlt. 18000 ft.

Airport Communications:
HOUSTON APP/DEP:134.45
ASOS:119.925
CLNC DEL:125.2
CTAF/UNICOM:123

KLBX Zoom In..

Runways:

(A) RW 17 length 7000 ft width 100 ft
ILS 109.10 / hdg 175

(B) RW 35 length 7000 ft width 100 ft
---- / hdg 355

Location; KLBX
Day. 19 / Time. 20.53 Zulu
* Altimeter: 30.20
* Temperature: 27° c. 80.6°f.
* Wind from: 030° Speed 10 kn.
Dewpoint: 03° c.
Visibility: 10 Statute Miles.
Clouds: Clear (automated report).

KLBX 192053Z AUTO 03010KT 10SM CLR 27/03 A3020 RMK AO2 SLP226 T02670033 58019


Wind From 030°
Speed 10 kn.

  YouTube Music Video
 
jpsmedia.com for Web Design  worldairports.se 2018   terms of use